Time;durP1;ratioP1;P1;durP2;ratioP2;P2;SDS_P1;SDS_P2;PMS_P1;PMS_P2;Temp;Humidity;BMP_temperature;BMP_pressure;BME280_temperature;BME280_humidity;BME280_pressure;Samples;Min_cycle;Max_cycle;Signal;HPM_P1;HPM_P2
2021/03/02 00:01:25;;;;;;;10.17;5.10;;;;;;;;;;4987681;28;20209;-71
2021/03/02 00:03:54;;;;;;;10.67;4.70;;;;;;;;;;4998129;28;20244;-71
2021/03/02 00:06:22;;;;;;;14.13;5.80;;;;;;;;;;4997123;28;20205;-70
2021/03/02 00:08:50;;;;;;;12.90;4.77;;;;;;;;;;4998310;28;20240;-70
2021/03/02 00:11:18;;;;;;;10.30;5.03;;;;;;;;;;4997587;28;20205;-71
2021/03/02 00:13:45;;;;;;;10.63;5.07;;;;;;;;;;4998805;28;20208;-70
2021/03/02 00:16:12;;;;;;;7.07;4.57;;;;;;;;;;4996371;28;20736;-71
2021/03/02 00:18:45;;;;;;;11.97;4.83;;;;;;;;;;4997290;28;20205;-70
2021/03/02 00:21:16;;;;;;;9.87;5.50;;;;;;;;;;4997339;28;20301;-69
2021/03/02 00:23:47;;;;;;;9.10;4.83;;;;;;;;;;4998411;28;20232;-70
2021/03/02 00:26:18;;;;;;;10.13;4.43;;;;;;;;;;4994187;28;20244;-70
2021/03/02 00:28:46;;;;;;;9.23;4.63;;;;;;;;;;4996964;28;20209;-71
2021/03/02 00:31:14;;;;;;;7.67;4.50;;;;;;;;;;4997543;28;20197;-69
2021/03/02 00:33:42;;;;;;;11.03;4.57;;;;;;;;;;4997713;28;20201;-71
2021/03/02 00:36:10;;;;;;;7.57;4.27;;;;;;;;;;4997130;28;20240;-71
2021/03/02 00:38:38;;;;;;;7.87;4.43;;;;;;;;;;4997227;28;20212;-71
2021/03/02 00:41:05;;;;;;;7.67;4.23;;;;;;;;;;4997103;28;20665;-71
2021/03/02 00:43:32;;;;;;;5.83;4.13;;;;;;;;;;4990162;28;20252;-71
2021/03/02 00:45:59;;;;;;;9.53;5.00;;;;;;;;;;4995483;28;20233;-70
2021/03/02 00:48:26;;;;;;;6.40;4.00;;;;;;;;;;4994798;28;20204;-70
2021/03/02 00:50:53;;;;;;;15.27;4.70;;;;;;;;;;5002181;28;20255;-70
2021/03/02 00:53:22;;;;;;;11.47;4.33;;;;;;;;;;4996720;28;20672;-70
2021/03/02 00:55:50;;;;;;;9.80;4.60;;;;;;;;;;5000268;28;20299;-71
2021/03/02 00:58:17;;;;;;;7.33;4.93;;;;;;;;;;5001023;28;20259;-70
2021/03/02 01:00:44;;;;;;;9.43;5.73;;;;;;;;;;4999996;28;20209;-70
2021/03/02 01:03:12;;;;;;;10.97;5.17;;;;;;;;;;5001597;28;20216;-70
2021/03/02 01:05:39;;;;;;;7.87;4.50;;;;;;;;;;5000716;28;20236;-70
2021/03/02 01:08:06;;;;;;;11.70;4.60;;;;;;;;;;5000770;28;21101;-70
2021/03/02 01:10:33;;;;;;;12.60;4.77;;;;;;;;;;4982200;28;20740;-70
2021/03/02 01:13:13;;;;;;;10.17;4.50;;;;;;;;;;4989849;28;20205;-70
2021/03/02 01:15:40;;;;;;;7.93;4.20;;;;;;;;;;4980613;28;20234;-71
2021/03/02 01:18:08;;;;;;;8.77;4.40;;;;;;;;;;4980108;28;20309;-70
2021/03/02 01:20:35;;;;;;;8.57;4.43;;;;;;;;;;4981129;28;20205;-70
2021/03/02 01:23:02;;;;;;;10.83;5.40;;;;;;;;;;4982162;28;20224;-70
2021/03/02 01:25:30;;;;;;;7.53;4.20;;;;;;;;;;4980190;28;20225;-70
2021/03/02 01:27:57;;;;;;;8.00;4.50;;;;;;;;;;4981221;28;20209;-70
2021/03/02 01:30:26;;;;;;;11.63;4.60;;;;;;;;;;4981695;28;20213;-70
2021/03/02 01:32:53;;;;;;;10.27;5.27;;;;;;;;;;4980787;28;20210;-70
2021/03/02 01:35:20;;;;;;;9.30;5.30;;;;;;;;;;4981477;28;20222;-69
2021/03/02 01:37:52;;;;;;;12.30;5.73;;;;;;;;;;4981643;28;20216;-70
2021/03/02 01:40:19;;;;;;;14.67;6.10;;;;;;;;;;4981678;28;20296;-70
2021/03/02 01:42:46;;;;;;;10.73;6.37;;;;;;;;;;4978952;28;20209;-70
2021/03/02 01:45:15;;;;;;;13.20;6.40;;;;;;;;;;4980674;28;20222;-70
2021/03/02 01:47:43;;;;;;;13.07;6.40;;;;;;;;;;4980639;28;20739;-70
2021/03/02 01:50:12;;;;;;;11.53;6.50;;;;;;;;;;4980783;28;20244;-70
2021/03/02 01:52:39;;;;;;;13.10;6.10;;;;;;;;;;4980838;28;20244;-70
2021/03/02 01:55:07;;;;;;;12.57;6.23;;;;;;;;;;4979755;28;20222;-70
2021/03/02 01:57:35;;;;;;;11.87;6.13;;;;;;;;;;4981177;28;20218;-70
2021/03/02 02:00:05;;;;;;;11.60;6.70;;;;;;;;;;4980162;28;20697;-70
2021/03/02 02:02:34;;;;;;;14.37;7.17;;;;;;;;;;4978795;28;20210;-70
2021/03/02 02:05:05;;;;;;;16.47;6.97;;;;;;;;;;4979550;28;20312;-71
2021/03/02 02:07:33;;;;;;;13.80;6.33;;;;;;;;;;4981227;28;20646;-70
2021/03/02 02:10:04;;;;;;;14.97;7.40;;;;;;;;;;4994241;28;20709;-70
2021/03/02 02:12:34;;;;;;;10.50;6.87;;;;;;;;;;5000969;28;20200;-70
2021/03/02 02:15:03;;;;;;;15.00;7.47;;;;;;;;;;4999823;28;20279;-69
2021/03/02 02:17:33;;;;;;;13.73;7.90;;;;;;;;;;5000229;28;20212;-70
2021/03/02 02:20:02;;;;;;;13.53;8.40;;;;;;;;;;4999998;28;20229;-70
2021/03/02 02:22:56;;;;;;;15.60;9.43;;;;;;;;;;4998662;28;20288;-70
2021/03/02 02:25:28;;;;;;;21.20;10.20;;;;;;;;;;4975171;28;20259;-70
2021/03/02 02:27:57;;;;;;;19.20;10.20;;;;;;;;;;5000367;28;20216;-70
2021/03/02 02:30:24;;;;;;;17.17;10.07;;;;;;;;;;4999547;28;20201;-70
2021/03/02 02:32:52;;;;;;;14.53;10.23;;;;;;;;;;4998312;28;20213;-70
2021/03/02 02:35:20;;;;;;;25.37;11.87;;;;;;;;;;5000373;28;20221;-70
2021/03/02 02:37:48;;;;;;;22.37;11.67;;;;;;;;;;4999558;28;20213;-70
2021/03/02 02:40:16;;;;;;;16.67;10.77;;;;;;;;;;5000237;28;20272;-70
2021/03/02 02:42:45;;;;;;;17.70;10.47;;;;;;;;;;5001463;28;20564;-70
2021/03/02 02:45:14;;;;;;;14.47;10.43;;;;;;;;;;4990397;28;20325;-70
2021/03/02 02:47:41;;;;;;;17.37;11.50;;;;;;;;;;4999778;28;20276;-70
2021/03/02 02:50:10;;;;;;;14.60;10.53;;;;;;;;;;4999170;28;20237;-70
2021/03/02 02:52:44;;;;;;;19.53;11.03;;;;;;;;;;4998971;28;20264;-70
2021/03/02 02:55:13;;;;;;;13.97;10.43;;;;;;;;;;4998880;28;20308;-70
2021/03/02 02:57:41;;;;;;;16.83;10.70;;;;;;;;;;4999146;28;20244;-70
2021/03/02 03:00:10;;;;;;;19.73;10.23;;;;;;;;;;4999880;28;20240;-70
2021/03/02 03:02:41;;;;;;;21.50;10.17;;;;;;;;;;4998715;28;20746;-70
2021/03/02 03:05:09;;;;;;;16.37;9.93;;;;;;;;;;4999357;28;20264;-70
2021/03/02 03:07:39;;;;;;;16.30;9.27;;;;;;;;;;4998709;28;20712;-70
2021/03/02 03:10:21;;;;;;;13.17;7.77;;;;;;;;;;4998519;28;20245;-70
2021/03/02 03:12:49;;;;;;;14.00;5.73;;;;;;;;;;4998423;28;20200;-70
2021/03/02 03:15:18;;;;;;;8.10;4.73;;;;;;;;;;4999567;28;20280;-70
2021/03/02 03:17:47;;;;;;;7.97;4.97;;;;;;;;;;4997569;28;20240;-70
2021/03/02 03:20:14;;;;;;;12.90;4.70;;;;;;;;;;4999153;28;20208;-70
2021/03/02 03:22:42;;;;;;;8.70;5.30;;;;;;;;;;4998483;28;20239;-70
2021/03/02 03:25:10;;;;;;;9.17;5.33;;;;;;;;;;4997309;28;20256;-70
2021/03/02 03:27:40;;;;;;;8.20;4.73;;;;;;;;;;4998920;28;20647;-70
2021/03/02 03:30:11;;;;;;;11.30;5.37;;;;;;;;;;4999103;28;20237;-70
2021/03/02 03:32:39;;;;;;;10.60;6.10;;;;;;;;;;4993064;28;20297;-70
2021/03/02 03:35:08;;;;;;;7.40;5.37;;;;;;;;;;4999175;28;20228;-70
2021/03/02 03:37:35;;;;;;;10.47;5.20;;;;;;;;;;4998201;28;20284;-70
2021/03/02 03:40:03;;;;;;;12.13;5.57;;;;;;;;;;4998095;28;20212;-70
2021/03/02 03:42:30;;;;;;;11.17;5.17;;;;;;;;;;5000462;28;20215;-70
2021/03/02 03:45:07;;;;;;;9.63;5.07;;;;;;;;;;4998531;28;20360;-70
2021/03/02 03:47:34;;;;;;;9.27;5.03;;;;;;;;;;4997267;28;20240;-70
2021/03/02 03:50:02;;;;;;;12.37;5.33;;;;;;;;;;4998134;28;20229;-70
2021/03/02 03:52:30;;;;;;;12.47;5.27;;;;;;;;;;4998070;28;20201;-70
2021/03/02 03:54:59;;;;;;;7.37;4.57;;;;;;;;;;4997792;28;20220;-70
2021/03/02 03:57:27;;;;;;;6.80;4.90;;;;;;;;;;4996998;28;20240;-70
2021/03/02 03:59:54;;;;;;;8.77;4.57;;;;;;;;;;4998573;28;20672;-70
2021/03/02 04:02:21;;;;;;;8.60;4.53;;;;;;;;;;4996766;28;20219;-70
2021/03/02 04:04:49;;;;;;;10.00;4.73;;;;;;;;;;4998596;28;20264;-70
2021/03/02 04:07:16;;;;;;;8.70;4.50;;;;;;;;;;4998004;28;20209;-70
2021/03/02 04:09:45;;;;;;;9.90;4.10;;;;;;;;;;4998358;28;20707;-70
2021/03/02 04:12:12;;;;;;;12.47;4.60;;;;;;;;;;4995836;28;20204;-70
2021/03/02 04:14:40;;;;;;;7.27;4.90;;;;;;;;;;5002776;28;20224;-70
2021/03/02 04:17:09;;;;;;;8.37;4.87;;;;;;;;;;4997704;28;20274;-71
2021/03/02 04:19:36;;;;;;;7.87;4.47;;;;;;;;;;4998355;28;20209;-70
2021/03/02 04:22:03;;;;;;;8.30;4.50;;;;;;;;;;4996294;28;20586;-70
2021/03/02 04:24:30;;;;;;;8.47;4.80;;;;;;;;;;4998085;28;20267;-70
2021/03/02 04:26:58;;;;;;;12.00;5.10;;;;;;;;;;4996483;28;20247;-70
2021/03/02 04:29:25;;;;;;;7.20;4.90;;;;;;;;;;4998192;28;20299;-71
2021/03/02 04:31:52;;;;;;;8.63;4.40;;;;;;;;;;4996113;28;20649;-70
2021/03/02 04:34:20;;;;;;;8.80;4.60;;;;;;;;;;4997961;28;20703;-70
2021/03/02 04:36:47;;;;;;;9.70;4.50;;;;;;;;;;4996917;28;20204;-70
2021/03/02 04:39:14;;;;;;;7.87;4.47;;;;;;;;;;4998199;28;20272;-70
2021/03/02 04:41:41;;;;;;;9.83;5.00;;;;;;;;;;4995175;28;20664;-70
2021/03/02 04:44:09;;;;;;;8.77;5.03;;;;;;;;;;4997659;28;20225;-70
2021/03/02 04:46:36;;;;;;;7.77;3.73;;;;;;;;;;4995073;28;20259;-70
2021/03/02 04:49:03;;;;;;;5.17;3.97;;;;;;;;;;4997918;28;20209;-70
2021/03/02 04:51:30;;;;;;;7.97;4.10;;;;;;;;;;4991169;28;20213;-70
2021/03/02 04:53:57;;;;;;;10.20;4.50;;;;;;;;;;4997124;28;20287;-70
2021/03/02 04:56:24;;;;;;;8.87;4.20;;;;;;;;;;4997918;28;20240;-70
2021/03/02 04:58:51;;;;;;;6.97;4.33;;;;;;;;;;4997894;28;20247;-70
2021/03/02 05:01:19;;;;;;;7.30;4.53;;;;;;;;;;4997046;28;20280;-70
2021/03/02 05:03:46;;;;;;;9.00;4.33;;;;;;;;;;4997670;28;20288;-70
2021/03/02 05:06:14;;;;;;;10.43;4.00;;;;;;;;;;4997079;28;20275;-70
2021/03/02 05:08:40;;;;;;;7.77;4.37;;;;;;;;;;4997748;28;20276;-70
2021/03/02 05:11:08;;;;;;;7.87;4.40;;;;;;;;;;4996780;28;20209;-70
2021/03/02 05:13:35;;;;;;;7.70;4.20;;;;;;;;;;5003456;28;20205;-70
2021/03/02 05:16:10;;;;;;;6.47;4.80;;;;;;;;;;4996871;28;20727;-70
2021/03/02 05:18:38;;;;;;;8.13;4.20;;;;;;;;;;4997445;28;20267;-70
2021/03/02 05:21:05;;;;;;;16.93;6.37;;;;;;;;;;4997120;28;20244;-70
2021/03/02 05:23:32;;;;;;;11.73;5.97;;;;;;;;;;4996987;28;20669;-70
2021/03/02 05:26:00;;;;;;;11.70;5.03;;;;;;;;;;4997250;28;20256;-70
2021/03/02 05:28:27;;;;;;;8.37;5.10;;;;;;;;;;4988121;28;20209;-70
2021/03/02 05:30:54;;;;;;;10.93;5.53;;;;;;;;;;4997643;28;20249;-70
2021/03/02 05:33:21;;;;;;;14.53;11.00;;;;;;;;;;4996556;28;20240;-71
2021/03/02 05:35:49;;;;;;;15.10;10.47;;;;;;;;;;5000054;28;20582;-70
2021/03/02 05:38:16;;;;;;;25.90;12.87;;;;;;;;;;5001114;28;20704;-70
2021/03/02 05:40:43;;;;;;;98.23;39.93;;;;;;;;;;5000130;28;20251;-70
2021/03/02 05:43:15;;;;;;;87.27;33.73;;;;;;;;;;4998982;28;20251;-70
2021/03/02 05:45:43;;;;;;;43.63;18.53;;;;;;;;;;5000440;28;20292;-70
2021/03/02 05:48:11;;;;;;;51.00;23.00;;;;;;;;;;5000918;28;20736;-70
2021/03/02 05:50:38;;;;;;;14.40;5.93;;;;;;;;;;4999458;28;20289;-70
2021/03/02 05:53:07;;;;;;;11.93;5.53;;;;;;;;;;4999526;28;20292;-70
2021/03/02 05:55:35;;;;;;;9.30;5.53;;;;;;;;;;4999873;28;20224;-70
2021/03/02 05:58:04;;;;;;;11.57;5.70;;;;;;;;;;4999728;28;20646;-71
2021/03/02 06:00:31;;;;;;;8.57;4.93;;;;;;;;;;5001007;28;20292;-70
2021/03/02 06:02:58;;;;;;;14.77;5.47;;;;;;;;;;4999600;28;20300;-70
2021/03/02 06:05:26;;;;;;;7.50;4.67;;;;;;;;;;5000626;28;20656;-71
2021/03/02 06:07:53;;;;;;;8.30;5.90;;;;;;;;;;4999413;28;20268;-71
2021/03/02 06:10:27;;;;;;;11.53;5.47;;;;;;;;;;5000488;28;20241;-71
2021/03/02 06:12:55;;;;;;;9.43;5.37;;;;;;;;;;5004330;28;20204;-70
2021/03/02 06:15:22;;;;;;;12.70;6.00;;;;;;;;;;5003277;28;20256;-70
2021/03/02 06:18:09;;;;;;;12.43;5.93;;;;;;;;;;4999938;28;20215;-70
2021/03/02 06:20:36;;;;;;;13.90;5.57;;;;;;;;;;4999679;28;20212;-71
2021/03/02 06:23:19;;;;;;;12.93;5.83;;;;;;;;;;4998784;28;21015;-71
2021/03/02 06:25:47;;;;;;;8.97;5.70;;;;;;;;;;4999399;28;20253;-71
2021/03/02 06:28:14;;;;;;;8.00;5.07;;;;;;;;;;4999439;28;20292;-69
2021/03/02 06:30:41;;;;;;;10.70;5.70;;;;;;;;;;5000194;28;20408;-71
2021/03/02 06:33:17;;;;;;;12.97;6.07;;;;;;;;;;4998983;28;20213;-71
2021/03/02 06:35:45;;;;;;;11.63;5.83;;;;;;;;;;4999376;28;20231;-71
2021/03/02 06:38:26;;;;;;;8.37;5.43;;;;;;;;;;5000152;28;20216;-70
2021/03/02 06:40:54;;;;;;;16.80;6.03;;;;;;;;;;4999116;28;20232;-70
2021/03/02 06:43:34;;;;;;;13.90;5.43;;;;;;;;;;4997986;28;20204;-71
2021/03/02 06:46:02;;;;;;;9.77;5.50;;;;;;;;;;4998517;28;20232;-70
2021/03/02 06:48:30;;;;;;;8.37;5.37;;;;;;;;;;4998897;28;20243;-70
2021/03/02 06:50:58;;;;;;;11.37;6.60;;;;;;;;;;4994034;28;20945;-71
2021/03/02 06:53:25;;;;;;;8.03;5.80;;;;;;;;;;4991345;28;20649;-71
2021/03/02 06:55:52;;;;;;;16.10;7.07;;;;;;;;;;4999620;28;20312;-71
2021/03/02 06:58:23;;;;;;;15.10;5.83;;;;;;;;;;4998918;28;20240;-71
2021/03/02 07:00:51;;;;;;;13.97;6.10;;;;;;;;;;4998899;28;20236;-71
2021/03/02 07:03:25;;;;;;;12.60;6.20;;;;;;;;;;4998363;28;20251;-71
2021/03/02 07:09:11;;;;;;;14.23;6.40;;;;;;;;;;4958340;28;20334;-69
2021/03/02 07:11:46;;;;;;;16.00;6.83;;;;;;;;;;4962543;28;20289;-69
2021/03/02 07:17:19;;;;;;;15.57;7.57;;;;;;;;;;4995529;28;20283;-70
2021/03/02 07:19:48;;;;;;;19.07;8.57;;;;;;;;;;4998460;28;20295;-71
2021/03/02 07:22:19;;;;;;;16.50;8.00;;;;;;;;;;4998549;28;20280;-71
2021/03/02 07:25:01;;;;;;;16.77;7.70;;;;;;;;;;4997703;28;20268;-72
2021/03/02 07:27:36;;;;;;;14.67;7.03;;;;;;;;;;4989081;28;20228;-72
2021/03/02 07:30:05;;;;;;;18.03;7.70;;;;;;;;;;4998225;28;20739;-71
2021/03/02 07:32:34;;;;;;;16.27;7.90;;;;;;;;;;4995998;28;20289;-69
2021/03/02 07:35:02;;;;;;;17.50;7.87;;;;;;;;;;4999105;28;20256;-70
2021/03/02 07:37:29;;;;;;;12.43;7.20;;;;;;;;;;4999461;28;20263;-70
2021/03/02 07:39:59;;;;;;;21.20;7.83;;;;;;;;;;4998990;28;20299;-70
2021/03/02 07:42:27;;;;;;;17.93;7.67;;;;;;;;;;4998944;28;20268;-70
2021/03/02 07:45:07;;;;;;;17.10;7.97;;;;;;;;;;4998944;28;20316;-70
2021/03/02 07:47:56;;;;;;;10.57;6.17;;;;;;;;;;4994842;28;20581;-69
2021/03/02 07:50:25;;;;;;;11.20;6.73;;;;;;;;;;4999030;28;20232;-70
2021/03/02 07:53:07;;;;;;;18.43;6.13;;;;;;;;;;4998703;28;20215;-70
2021/03/02 07:55:34;;;;;;;12.87;6.27;;;;;;;;;;4997538;28;20658;-70
2021/03/02 07:58:15;;;;;;;17.10;6.70;;;;;;;;;;4998515;28;20212;-70
2021/03/02 08:00:42;;;;;;;16.13;7.83;;;;;;;;;;4998855;28;20240;-70
2021/03/02 08:03:33;;;;;;;11.87;6.63;;;;;;;;;;4998648;28;20292;-70
2021/03/02 08:06:02;;;;;;;16.47;6.40;;;;;;;;;;4998642;28;20243;-70
2021/03/02 08:08:29;;;;;;;21.67;7.27;;;;;;;;;;4998392;28;20232;-70
2021/03/02 08:10:57;;;;;;;14.87;6.57;;;;;;;;;;4998418;28;20739;-67
2021/03/02 08:13:34;;;;;;;13.20;6.97;;;;;;;;;;4997997;28;20200;-70
2021/03/02 08:16:02;;;;;;;8.40;5.63;;;;;;;;;;5003970;28;20244;-69
2021/03/02 08:18:30;;;;;;;15.50;6.60;;;;;;;;;;5009683;28;20208;-70
2021/03/02 08:21:18;;;;;;;22.13;7.13;;;;;;;;;;5008238;28;20280;-68
2021/03/02 08:23:50;;;;;;;14.47;6.70;;;;;;;;;;5000523;28;20232;-71
2021/03/02 08:26:21;;;;;;;14.53;7.20;;;;;;;;;;5006588;28;20279;-74
2021/03/02 08:29:02;;;;;;;14.00;6.27;;;;;;;;;;4998437;28;20243;-72
2021/03/02 08:31:29;;;;;;;8.97;5.77;;;;;;;;;;4998158;28;20239;-72
2021/03/02 08:33:59;;;;;;;12.37;5.90;;;;;;;;;;4998397;28;20232;-72
2021/03/02 08:36:27;;;;;;;9.60;5.97;;;;;;;;;;4990188;28;20256;-72
2021/03/02 08:38:55;;;;;;;10.67;6.17;;;;;;;;;;4998400;28;20244;-72
2021/03/02 08:41:29;;;;;;;12.53;5.23;;;;;;;;;;4999952;28;20212;-72
2021/03/02 08:43:56;;;;;;;11.33;6.03;;;;;;;;;;4998028;28;20216;-72
2021/03/02 08:46:24;;;;;;;10.57;5.73;;;;;;;;;;4997947;28;20229;-71
2021/03/02 08:48:51;;;;;;;13.47;5.73;;;;;;;;;;4998102;28;20299;-72
2021/03/02 08:51:19;;;;;;;10.47;5.63;;;;;;;;;;4998268;28;20221;-72
2021/03/02 08:53:48;;;;;;;12.90;6.63;;;;;;;;;;4998247;28;20205;-72
2021/03/02 08:56:21;;;;;;;10.80;5.53;;;;;;;;;;4997909;28;20291;-72
2021/03/02 08:58:49;;;;;;;10.87;6.03;;;;;;;;;;4997769;28;20200;-69
2021/03/02 09:01:24;;;;;;;11.37;5.67;;;;;;;;;;4998038;28;20215;-69
2021/03/02 09:03:52;;;;;;;14.23;5.73;;;;;;;;;;4998123;28;20204;-69
2021/03/02 09:06:20;;;;;;;11.50;5.93;;;;;;;;;;4997736;28;20716;-69
2021/03/02 09:08:54;;;;;;;12.03;5.67;;;;;;;;;;4996231;28;20286;-69
2021/03/02 09:11:24;;;;;;;7.43;5.47;;;;;;;;;;5000934;28;20212;-69
2021/03/02 09:13:52;;;;;;;9.47;6.40;;;;;;;;;;5004938;28;20201;-69
2021/03/02 09:16:27;;;;;;;13.17;6.43;;;;;;;;;;5001082;28;20211;-69
2021/03/02 09:19:04;;;;;;;14.90;6.13;;;;;;;;;;5001463;28;20243;-69
2021/03/02 09:21:31;;;;;;;15.20;6.67;;;;;;;;;;5001351;28;20288;-69
2021/03/02 09:23:58;;;;;;;14.10;6.50;;;;;;;;;;5001445;28;20245;-69
2021/03/02 09:26:27;;;;;;;12.33;6.30;;;;;;;;;;5000799;28;20260;-69
2021/03/02 09:28:54;;;;;;;9.80;6.83;;;;;;;;;;5001330;28;20311;-68
2021/03/02 09:31:23;;;;;;;11.87;6.17;;;;;;;;;;5001124;28;20669;-69
2021/03/02 09:33:50;;;;;;;11.53;6.67;;;;;;;;;;5001570;28;20235;-69
2021/03/02 09:36:18;;;;;;;8.80;5.67;;;;;;;;;;4999973;28;20221;-69
2021/03/02 09:38:45;;;;;;;17.00;6.53;;;;;;;;;;5000709;28;20284;-69
2021/03/02 09:41:13;;;;;;;13.57;6.40;;;;;;;;;;5000204;28;20646;-69
2021/03/02 09:43:40;;;;;;;17.67;7.10;;;;;;;;;;5000069;28;20624;-69
2021/03/02 09:46:07;;;;;;;12.83;6.50;;;;;;;;;;4999044;28;20304;-69
2021/03/02 09:48:45;;;;;;;20.93;7.17;;;;;;;;;;4999218;28;20205;-69
2021/03/02 09:51:27;;;;;;;17.13;7.73;;;;;;;;;;4999455;28;20209;-69
2021/03/02 09:53:54;;;;;;;12.77;6.97;;;;;;;;;;4999287;28;20243;-69
2021/03/02 09:56:21;;;;;;;12.17;6.87;;;;;;;;;;4999599;28;20749;-69
2021/03/02 09:58:49;;;;;;;11.33;6.83;;;;;;;;;;4999735;28;20775;-68
2021/03/02 10:01:25;;;;;;;15.30;7.33;;;;;;;;;;5000165;28;20247;-69
2021/03/02 10:03:54;;;;;;;13.70;7.47;;;;;;;;;;5000392;28;20291;-69
2021/03/02 10:06:23;;;;;;;18.73;7.63;;;;;;;;;;5000256;28;20315;-68
2021/03/02 10:08:50;;;;;;;11.30;7.27;;;;;;;;;;5001379;28;20320;-67
2021/03/02 10:11:21;;;;;;;13.23;7.07;;;;;;;;;;5000718;28;20296;-69
2021/03/02 10:13:50;;;;;;;13.20;6.97;;;;;;;;;;5000661;28;20638;-68
2021/03/02 10:16:28;;;;;;;12.70;7.47;;;;;;;;;;5000289;28;20716;-68
2021/03/02 10:18:59;;;;;;;12.73;6.93;;;;;;;;;;5000323;28;20575;-68
2021/03/02 10:21:27;;;;;;;13.70;7.30;;;;;;;;;;5000405;28;20240;-69
2021/03/02 10:23:56;;;;;;;18.53;7.97;;;;;;;;;;5000533;28;20236;-68
2021/03/02 10:26:25;;;;;;;12.13;6.80;;;;;;;;;;5000512;28;20264;-68
2021/03/02 10:28:53;;;;;;;17.37;7.07;;;;;;;;;;5000506;28;20733;-69
2021/03/02 10:31:20;;;;;;;19.63;7.93;;;;;;;;;;5000209;28;20742;-68
2021/03/02 10:33:47;;;;;;;13.37;7.53;;;;;;;;;;5000471;28;20212;-68
2021/03/02 10:36:27;;;;;;;17.00;8.07;;;;;;;;;;5000336;28;20297;-67
2021/03/02 10:38:55;;;;;;;12.97;7.10;;;;;;;;;;5000116;28;20742;-67
2021/03/02 10:41:22;;;;;;;14.73;7.23;;;;;;;;;;5000318;28;20295;-67
2021/03/02 10:43:50;;;;;;;12.43;6.53;;;;;;;;;;5000229;28;20236;-67
2021/03/02 10:46:18;;;;;;;18.63;7.13;;;;;;;;;;4999965;28;20264;-66
2021/03/02 10:48:46;;;;;;;8.83;6.67;;;;;;;;;;4999727;28;20212;-66
2021/03/02 10:51:13;;;;;;;12.60;7.03;;;;;;;;;;5000254;28;20213;-70
2021/03/02 10:53:40;;;;;;;11.10;6.63;;;;;;;;;;4999773;28;20244;-66
2021/03/02 10:56:08;;;;;;;10.60;6.70;;;;;;;;;;4999919;28;20316;-67
2021/03/02 10:58:35;;;;;;;12.97;6.60;;;;;;;;;;4999957;28;20288;-66
2021/03/02 11:01:02;;;;;;;10.37;6.40;;;;;;;;;;5000095;28;20213;-66
2021/03/02 11:03:30;;;;;;;11.47;6.80;;;;;;;;;;4999365;28;20240;-69
2021/03/02 11:05:57;;;;;;;13.97;7.33;;;;;;;;;;4999528;28;20272;-66
2021/03/02 11:08:24;;;;;;;11.67;6.20;;;;;;;;;;4999144;28;21343;-69
2021/03/02 11:10:52;;;;;;;12.67;5.97;;;;;;;;;;4999820;28;20243;-68
2021/03/02 11:13:19;;;;;;;8.40;6.10;;;;;;;;;;4999376;28;20554;-68
2021/03/02 11:15:46;;;;;;;9.07;5.53;;;;;;;;;;4999629;28;20292;-68
2021/03/02 11:18:13;;;;;;;13.80;6.67;;;;;;;;;;4999069;28;20235;-68
2021/03/02 11:20:44;;;;;;;17.53;6.47;;;;;;;;;;4999385;28;20258;-68
2021/03/02 11:23:12;;;;;;;10.80;5.67;;;;;;;;;;4999577;28;20212;-68
2021/03/02 11:25:39;;;;;;;14.33;5.60;;;;;;;;;;4999333;28;20263;-68
2021/03/02 11:28:07;;;;;;;13.53;5.90;;;;;;;;;;4999110;28;20736;-68
2021/03/02 11:30:34;;;;;;;9.67;5.93;;;;;;;;;;4999113;28;20240;-68
2021/03/02 11:33:02;;;;;;;13.20;5.90;;;;;;;;;;4998778;28;20209;-68
2021/03/02 11:35:30;;;;;;;11.87;5.20;;;;;;;;;;4998983;28;20221;-68
2021/03/02 11:37:58;;;;;;;8.83;5.17;;;;;;;;;;4999327;28;20560;-68
2021/03/02 11:40:25;;;;;;;8.47;5.67;;;;;;;;;;4998967;28;20235;-68
2021/03/02 11:42:53;;;;;;;9.57;5.73;;;;;;;;;;4998899;28;20291;-68
2021/03/02 11:45:20;;;;;;;13.90;5.33;;;;;;;;;;4998828;28;20328;-68
2021/03/02 11:47:48;;;;;;;9.10;5.23;;;;;;;;;;4998902;28;20208;-67
2021/03/02 11:50:15;;;;;;;10.60;5.47;;;;;;;;;;4998774;28;20212;-68
2021/03/02 11:52:42;;;;;;;9.43;5.00;;;;;;;;;;4999107;28;20247;-68
2021/03/02 11:55:11;;;;;;;12.57;5.03;;;;;;;;;;4998810;28;20229;-68
2021/03/02 11:57:38;;;;;;;10.50;4.37;;;;;;;;;;4998806;28;20272;-68
2021/03/02 12:00:06;;;;;;;8.80;4.73;;;;;;;;;;4998577;28;20295;-68
2021/03/02 12:02:33;;;;;;;8.23;4.23;;;;;;;;;;4998703;28;20272;-68
2021/03/02 12:05:01;;;;;;;6.60;4.30;;;;;;;;;;4998264;28;20727;-68
2021/03/02 12:07:28;;;;;;;7.27;3.90;;;;;;;;;;4998531;28;20244;-68
2021/03/02 12:09:55;;;;;;;5.70;3.03;;;;;;;;;;4999022;28;20271;-68
2021/03/02 12:12:24;;;;;;;5.70;2.47;;;;;;;;;;4998412;28;20259;-68
2021/03/02 12:14:51;;;;;;;3.30;2.20;;;;;;;;;;4998317;28;20316;-68
2021/03/02 12:17:18;;;;;;;6.80;2.40;;;;;;;;;;4998417;28;20260;-67
2021/03/02 12:19:45;;;;;;;5.27;2.67;;;;;;;;;;4998520;28;20219;-66
2021/03/02 12:22:12;;;;;;;4.17;2.40;;;;;;;;;;4998584;28;20205;-67
2021/03/02 12:24:39;;;;;;;7.63;2.80;;;;;;;;;;4998467;28;20267;-67
2021/03/02 12:27:06;;;;;;;4.10;2.50;;;;;;;;;;4998123;28;20662;-67
2021/03/02 12:29:34;;;;;;;5.50;2.60;;;;;;;;;;4998284;28;20209;-67
2021/03/02 12:32:05;;;;;;;6.47;2.57;;;;;;;;;;4998260;28;20215;-67
2021/03/02 12:34:32;;;;;;;4.53;2.17;;;;;;;;;;4998363;28;20267;-67
2021/03/02 12:36:59;;;;;;;4.60;2.53;;;;;;;;;;4998425;28;20296;-67
2021/03/02 12:39:26;;;;;;;7.73;2.63;;;;;;;;;;4998234;28;20209;-67
2021/03/02 12:41:53;;;;;;;5.77;2.20;;;;;;;;;;4998081;28;20291;-66
2021/03/02 12:44:20;;;;;;;3.13;2.27;;;;;;;;;;5002338;28;20324;-67
2021/03/02 12:46:48;;;;;;;4.20;2.43;;;;;;;;;;5000630;28;20229;-67
2021/03/02 12:49:15;;;;;;;6.67;2.33;;;;;;;;;;4999082;28;20196;-67
2021/03/02 12:51:42;;;;;;;4.27;2.40;;;;;;;;;;5002163;28;20268;-69
2021/03/02 12:54:10;;;;;;;6.37;2.53;;;;;;;;;;5002189;28;20262;-66
2021/03/02 12:56:37;;;;;;;4.13;2.30;;;;;;;;;;5002009;28;20201;-66
2021/03/02 12:59:04;;;;;;;5.27;2.23;;;;;;;;;;5001836;28;20744;-67
2021/03/02 13:01:31;;;;;;;6.50;2.60;;;;;;;;;;5001403;28;20200;-69
2021/03/02 13:04:00;;;;;;;3.97;2.40;;;;;;;;;;5001765;28;20228;-68
2021/03/02 13:06:27;;;;;;;5.47;2.70;;;;;;;;;;5001582;28;20271;-68
2021/03/02 13:08:55;;;;;;;5.70;2.70;;;;;;;;;;5002495;28;20332;-68
2021/03/02 13:11:22;;;;;;;4.57;2.70;;;;;;;;;;5001741;28;20315;-68
2021/03/02 13:13:49;;;;;;;5.47;2.83;;;;;;;;;;5001771;28;20236;-68
2021/03/02 13:16:16;;;;;;;5.10;2.30;;;;;;;;;;5001418;28;20252;-68
2021/03/02 13:18:46;;;;;;;4.13;2.63;;;;;;;;;;5001960;28;20244;-68
2021/03/02 13:21:14;;;;;;;6.03;2.70;;;;;;;;;;5001771;28;20208;-68
2021/03/02 13:23:42;;;;;;;6.67;2.60;;;;;;;;;;5001627;28;20707;-68
2021/03/02 13:26:11;;;;;;;7.20;2.53;;;;;;;;;;5001440;28;20676;-68
2021/03/02 13:28:40;;;;;;;5.63;3.03;;;;;;;;;;5001716;28;20216;-68
2021/03/02 13:31:08;;;;;;;7.53;2.87;;;;;;;;;;5001347;28;20288;-68
2021/03/02 13:33:35;;;;;;;5.50;2.30;;;;;;;;;;5001378;28;20272;-68
2021/03/02 13:36:03;;;;;;;5.40;2.40;;;;;;;;;;5001487;28;20235;-68
2021/03/02 13:38:33;;;;;;;6.40;2.20;;;;;;;;;;5001312;28;20303;-68
2021/03/02 13:41:00;;;;;;;4.90;2.37;;;;;;;;;;5001548;28;20292;-68
2021/03/02 13:43:27;;;;;;;6.73;2.40;;;;;;;;;;5001450;28;20240;-68
2021/03/02 13:45:54;;;;;;;4.33;2.30;;;;;;;;;;5001126;28;20235;-67
2021/03/02 13:48:22;;;;;;;7.10;3.20;;;;;;;;;;5001022;28;20282;-68
2021/03/02 13:50:50;;;;;;;5.33;2.27;;;;;;;;;;5001316;28;20204;-68
2021/03/02 13:53:17;;;;;;;3.47;2.20;;;;;;;;;;5001285;28;20213;-68
2021/03/02 13:55:48;;;;;;;5.17;2.20;;;;;;;;;;5000202;28;20233;-68
2021/03/02 13:58:15;;;;;;;4.73;2.33;;;;;;;;;;5000950;28;20225;-68
2021/03/02 14:00:42;;;;;;;6.23;2.77;;;;;;;;;;5001154;28;20243;-68
2021/03/02 14:03:12;;;;;;;9.27;3.10;;;;;;;;;;5000461;28;20251;-68
2021/03/02 14:05:39;;;;;;;6.57;2.60;;;;;;;;;;5000848;28;20311;-68
2021/03/02 14:08:09;;;;;;;5.47;2.63;;;;;;;;;;5001340;28;20209;-69
2021/03/02 14:10:36;;;;;;;3.67;2.27;;;;;;;;;;5000612;28;20684;-68
2021/03/02 14:13:04;;;;;;;5.40;2.43;;;;;;;;;;5000613;28;20243;-68
2021/03/02 14:15:33;;;;;;;7.93;2.40;;;;;;;;;;5000761;28;20225;-68
2021/03/02 14:18:00;;;;;;;4.13;2.47;;;;;;;;;;5000146;28;20204;-68
2021/03/02 14:20:28;;;;;;;7.53;2.30;;;;;;;;;;5000761;28;20335;-68
2021/03/02 14:22:55;;;;;;;4.00;2.40;;;;;;;;;;5000697;28;20236;-68
2021/03/02 14:25:23;;;;;;;4.10;3.27;;;;;;;;;;5000826;28;20275;-68
2021/03/02 14:27:50;;;;;;;4.17;2.27;;;;;;;;;;5000532;28;20236;-68
2021/03/02 14:30:19;;;;;;;4.03;2.53;;;;;;;;;;5000265;28;20691;-68
2021/03/02 14:32:46;;;;;;;6.73;2.60;;;;;;;;;;5000201;28;20217;-68
2021/03/02 14:35:14;;;;;;;3.77;2.77;;;;;;;;;;4991145;28;20304;-68
2021/03/02 14:37:41;;;;;;;6.03;2.50;;;;;;;;;;4999518;28;20209;-68
2021/03/02 14:40:11;;;;;;;4.83;2.60;;;;;;;;;;5000146;28;20554;-68
2021/03/02 14:42:40;;;;;;;4.13;2.43;;;;;;;;;;5000871;28;20219;-67
2021/03/02 14:45:12;;;;;;;3.33;2.53;;;;;;;;;;5000118;28;20261;-67
2021/03/02 14:47:41;;;;;;;5.07;3.37;;;;;;;;;;4988327;28;20634;-68
2021/03/02 14:50:10;;;;;;;3.70;2.47;;;;;;;;;;4999827;28;20714;-68
2021/03/02 14:52:38;;;;;;;7.47;3.40;;;;;;;;;;5000199;28;20272;-68